Time;durP1;ratioP1;P1;durP2;ratioP2;P2;SDS_P1;SDS_P2;PMS_P1;PMS_P2;Temp;Humidity;BMP_temperature;BMP_pressure;BME280_temperature;BME280_humidity;BME280_pressure;Samples;Min_cycle;Max_cycle;Signal;HPM_P1;HPM_P2
2023/12/26 00:02:17;;;;;;;0.10;0.10;;;7.60;99.90;;;;;;5029372;28;20426;-80
2023/12/26 00:04:42;;;;;;;0.10;0.10;;;7.70;99.90;;;;;;5030007;28;20598;-80
2023/12/26 00:07:08;;;;;;;0.10;0.10;;;7.60;99.90;;;;;;5027024;28;20707;-80
2023/12/26 00:09:33;;;;;;;0.10;0.10;;;7.70;99.90;;;;;;5029401;28;20187;-80
2023/12/26 00:11:59;;;;;;;0.10;0.10;;;7.70;99.90;;;;;;5027686;28;20642;-81
2023/12/26 00:14:24;;;;;;;0.10;0.10;;;7.80;99.90;;;;;;5029568;28;20739;-80
2023/12/26 00:16:50;;;;;;;0.10;0.10;;;7.80;99.90;;;;;;5012705;28;20183;-80
2023/12/26 00:19:15;;;;;;;0.20;0.20;;;7.80;99.90;;;;;;5033347;28;20187;-80
2023/12/26 00:21:41;;;;;;;0.20;0.20;;;7.80;99.90;;;;;;5041645;28;20684;-79
2023/12/26 00:24:07;;;;;;;0.10;0.10;;;7.80;99.90;;;;;;5044204;28;20210;-80
2023/12/26 00:26:36;;;;;;;0.20;0.20;;;7.80;99.90;;;;;;5032785;28;20261;-80
2023/12/26 00:29:01;;;;;;;0.10;0.10;;;7.80;99.90;;;;;;5026666;28;20434;-80
2023/12/26 00:31:27;;;;;;;0.10;0.10;;;7.80;99.90;;;;;;5031752;28;20421;-80
2023/12/26 00:33:53;;;;;;;0.20;0.20;;;7.80;99.90;;;;;;5035281;28;20191;-80
2023/12/26 00:36:19;;;;;;;0.10;0.10;;;7.80;99.90;;;;;;5036428;28;20321;-80
2023/12/26 00:38:47;;;;;;;0.10;0.10;;;7.80;99.90;;;;;;5023185;28;20517;-80
2023/12/26 00:41:16;;;;;;;0.20;0.20;;;7.70;99.90;;;;;;5033311;28;20175;-80
2023/12/26 00:43:42;;;;;;;0.20;0.20;;;7.70;99.90;;;;;;5008019;28;20421;-80
2023/12/26 00:46:08;;;;;;;0.27;0.27;;;7.70;99.90;;;;;;5022431;28;20484;-80
2023/12/26 00:48:36;;;;;;;0.10;0.10;;;7.70;99.90;;;;;;5044326;28;20418;-80
2023/12/26 00:51:02;;;;;;;0.20;0.20;;;7.70;99.90;;;;;;5031002;28;20302;-80
2023/12/26 00:53:28;;;;;;;0.10;0.10;;;7.70;99.90;;;;;;5032243;28;20422;-80
2023/12/26 00:55:54;;;;;;;0.20;0.20;;;7.70;99.90;;;;;;5014119;28;20445;-80
2023/12/26 00:58:19;;;;;;;0.20;0.20;;;7.70;99.90;;;;;;5031371;28;20822;-80
2023/12/26 01:00:45;;;;;;;0.20;0.20;;;7.70;99.90;;;;;;5013465;28;20182;-80
2023/12/26 01:03:10;;;;;;;0.20;0.20;;;7.70;99.90;;;;;;5031639;28;20256;-80
2023/12/26 01:05:36;;;;;;;0.20;0.20;;;7.70;99.90;;;;;;5019888;28;20227;-80
2023/12/26 01:08:01;;;;;;;0.20;0.20;;;7.70;99.90;;;;;;5040503;28;20189;-80
2023/12/26 01:10:27;;;;;;;0.20;0.20;;;7.80;99.90;;;;;;5027645;28;20184;-80
2023/12/26 01:12:52;;;;;;;0.10;0.10;;;7.70;99.90;;;;;;5027188;28;20183;-80
2023/12/26 01:15:18;;;;;;;0.13;0.13;;;7.70;99.90;;;;;;5017578;28;20184;-80
2023/12/26 01:17:44;;;;;;;0.20;0.20;;;7.80;99.90;;;;;;5013568;28;20181;-80
2023/12/26 01:20:10;;;;;;;0.10;0.10;;;7.80;99.90;;;;;;5019044;28;20223;-80
2023/12/26 01:22:36;;;;;;;0.20;0.20;;;7.80;99.90;;;;;;5027256;28;20773;-80
2023/12/26 01:25:02;;;;;;;0.20;0.20;;;7.80;99.90;;;;;;5042620;28;20914;-80
2023/12/26 01:27:27;;;;;;;0.20;0.20;;;7.80;99.90;;;;;;5032379;28;20179;-80
2023/12/26 01:29:53;;;;;;;0.20;0.20;;;7.80;99.90;;;;;;5041673;28;20944;-80
2023/12/26 01:32:19;;;;;;;0.20;0.20;;;7.80;99.90;;;;;;5032771;28;20212;-80
2023/12/26 01:34:45;;;;;;;0.20;0.20;;;7.80;99.90;;;;;;5038073;28;20187;-80
2023/12/26 01:37:10;;;;;;;0.30;0.30;;;7.80;99.90;;;;;;5042090;28;20645;-80
2023/12/26 01:39:36;;;;;;;0.20;0.20;;;7.90;99.90;;;;;;5038012;28;20234;-80
2023/12/26 01:42:01;;;;;;;0.20;0.20;;;7.80;99.90;;;;;;5036718;28;20229;-80
2023/12/26 01:44:27;;;;;;;0.20;0.20;;;7.90;99.90;;;;;;5029074;28;20261;-79
2023/12/26 01:46:53;;;;;;;0.30;0.30;;;7.90;99.90;;;;;;5050086;28;20229;-80
2023/12/26 01:49:19;;;;;;;0.30;0.30;;;7.80;99.90;;;;;;5042328;28;20193;-79
2023/12/26 01:51:45;;;;;;;0.30;0.30;;;7.90;99.90;;;;;;5041133;28;20425;-80
2023/12/26 01:54:11;;;;;;;0.37;0.37;;;7.90;99.90;;;;;;5019447;28;21112;-81
2023/12/26 01:56:37;;;;;;;0.30;0.30;;;7.90;99.90;;;;;;5031097;28;20437;-81
2023/12/26 01:59:03;;;;;;;0.30;0.30;;;7.90;99.90;;;;;;5042853;28;20523;-80
2023/12/26 02:01:30;;;;;;;0.30;0.30;;;7.90;99.90;;;;;;5016920;28;21027;-80
2023/12/26 02:03:58;;;;;;;0.30;0.30;;;7.80;99.90;;;;;;5045044;28;20191;-80
2023/12/26 02:06:23;;;;;;;0.40;0.40;;;7.80;99.90;;;;;;5035671;28;20486;-80
2023/12/26 02:08:50;;;;;;;3.00;2.80;;;7.90;99.90;;;;;;5038725;28;20809;-80
2023/12/26 02:11:16;;;;;;;0.40;0.40;;;7.80;99.90;;;;;;5024031;28;20233;-80
2023/12/26 02:13:41;;;;;;;0.30;0.30;;;7.90;99.90;;;;;;5014945;28;20430;-80
2023/12/26 02:16:13;;;;;;;0.40;0.40;;;7.90;99.90;;;;;;5021878;28;20640;-80
2023/12/26 02:18:40;;;;;;;0.30;0.30;;;7.90;99.90;;;;;;5041098;28;20884;-80
2023/12/26 02:21:05;;;;;;;0.40;0.40;;;7.90;99.90;;;;;;5032993;28;20531;-80
2023/12/26 02:23:33;;;;;;;0.30;0.30;;;7.90;99.90;;;;;;5019909;28;20833;-80
2023/12/26 02:26:01;;;;;;;0.40;0.40;;;7.90;99.90;;;;;;5018327;28;20211;-80
2023/12/26 02:28:26;;;;;;;0.40;0.40;;;7.90;99.90;;;;;;5031281;28;20430;-80
2023/12/26 02:30:53;;;;;;;0.43;0.43;;;7.90;99.90;;;;;;5022533;28;20429;-80
2023/12/26 02:33:19;;;;;;;0.40;0.40;;;8.00;99.90;;;;;;5024283;28;20213;-80
2023/12/26 02:35:45;;;;;;;0.40;0.40;;;7.90;99.90;;;;;;5036058;28;20458;-80
2023/12/26 02:38:11;;;;;;;0.30;0.30;;;7.90;99.90;;;;;;5029604;28;20429;-80
2023/12/26 02:40:36;;;;;;;0.30;0.30;;;7.90;99.90;;;;;;5030690;28;20959;-80
2023/12/26 02:43:02;;;;;;;0.40;0.40;;;8.00;99.90;;;;;;5029684;28;20642;-80
2023/12/26 02:45:27;;;;;;;0.30;0.30;;;8.00;99.90;;;;;;5019794;28;20289;-80
2023/12/26 02:47:53;;;;;;;0.30;0.30;;;8.00;99.90;;;;;;5014815;28;20274;-80
2023/12/26 02:50:18;;;;;;;0.30;0.30;;;8.00;99.90;;;;;;5011075;28;20501;-80
2023/12/26 02:52:44;;;;;;;0.20;0.20;;;8.00;99.90;;;;;;5030895;28;20183;-80
2023/12/26 02:55:11;;;;;;;0.20;0.20;;;7.90;99.90;;;;;;5013287;28;20179;-80
2023/12/26 02:57:36;;;;;;;0.30;0.30;;;8.00;99.90;;;;;;5017674;28;20688;-80
2023/12/26 03:00:03;;;;;;;0.20;0.20;;;8.00;99.90;;;;;;5029451;28;20450;-79
2023/12/26 03:02:29;;;;;;;0.20;0.20;;;8.00;99.90;;;;;;5014290;28;20187;-80
2023/12/26 03:04:54;;;;;;;0.20;0.20;;;8.00;99.90;;;;;;5029395;28;20455;-80
2023/12/26 03:07:20;;;;;;;0.20;0.20;;;8.00;99.90;;;;;;5040006;28;20789;-80
2023/12/26 03:09:45;;;;;;;0.30;0.30;;;8.00;99.90;;;;;;5011164;28;20176;-80
2023/12/26 03:12:11;;;;;;;0.30;0.30;;;8.00;99.90;;;;;;5002640;28;20242;-80
2023/12/26 03:14:36;;;;;;;0.30;0.30;;;7.90;99.90;;;;;;5022673;28;20647;-80
2023/12/26 03:17:02;;;;;;;0.30;0.30;;;8.00;99.90;;;;;;5014358;28;20315;-80
2023/12/26 03:19:27;;;;;;;0.30;0.30;;;8.00;99.90;;;;;;5043754;28;20666;-80
2023/12/26 03:21:53;;;;;;;0.30;0.30;;;8.00;99.90;;;;;;5024631;28;20231;-80
2023/12/26 03:24:18;;;;;;;0.30;0.30;;;8.00;99.90;;;;;;5011975;28;20192;-80
2023/12/26 03:26:44;;;;;;;0.30;0.30;;;7.90;99.90;;;;;;5027744;28;20709;-80
2023/12/26 03:29:09;;;;;;;0.80;0.80;;;8.00;99.90;;;;;;5033814;28;20196;-80
2023/12/26 03:31:41;;;;;;;0.30;0.30;;;8.00;99.90;;;;;;5044097;28;20198;-80
2023/12/26 03:34:07;;;;;;;0.30;0.30;;;8.00;99.90;;;;;;5030982;28;20188;-80
2023/12/26 03:36:32;;;;;;;0.30;0.30;;;8.00;99.90;;;;;;5029500;28;20457;-80
2023/12/26 03:38:58;;;;;;;0.30;0.30;;;8.00;99.90;;;;;;5034551;28;20421;-80
2023/12/26 03:41:23;;;;;;;0.30;0.30;;;8.00;99.90;;;;;;5039413;28;20211;-80
2023/12/26 03:43:49;;;;;;;0.30;0.30;;;8.00;99.90;;;;;;5012560;28;20274;-80
2023/12/26 03:46:14;;;;;;;0.40;0.40;;;7.90;99.90;;;;;;5014172;28;20584;-80
2023/12/26 03:48:40;;;;;;;0.37;0.37;;;7.90;99.90;;;;;;5029902;28;20631;-80
2023/12/26 03:51:05;;;;;;;0.40;0.40;;;7.90;99.90;;;;;;4998996;28;20639;-80
2023/12/26 03:53:31;;;;;;;0.40;0.40;;;7.90;99.90;;;;;;5019492;28;20183;-80
2023/12/26 03:55:56;;;;;;;0.40;0.40;;;7.90;99.90;;;;;;5031016;28;20180;-81
2023/12/26 03:58:22;;;;;;;0.40;0.40;;;7.90;99.90;;;;;;5027491;28;20679;-80
2023/12/26 04:00:47;;;;;;;0.60;0.60;;;7.90;99.90;;;;;;5029902;28;20658;-80
2023/12/26 04:03:13;;;;;;;0.50;0.50;;;7.90;99.90;;;;;;5026349;28;20186;-80
2023/12/26 04:05:38;;;;;;;0.50;0.50;;;7.90;99.90;;;;;;5022540;28;20709;-80
2023/12/26 04:08:04;;;;;;;1.43;1.37;;;7.90;99.90;;;;;;5026923;28;20552;-81
2023/12/26 04:10:29;;;;;;;5.77;1.50;;;7.90;99.90;;;;;;5013639;28;20234;-81
2023/12/26 04:12:56;;;;;;;0.50;0.50;;;7.80;99.90;;;;;;5007721;28;20195;-81
2023/12/26 04:15:22;;;;;;;1.43;1.03;;;7.80;99.90;;;;;;5012098;28;20601;-81
2023/12/26 04:17:47;;;;;;;0.60;0.60;;;7.80;99.90;;;;;;5026458;28;20546;-81
2023/12/26 04:20:13;;;;;;;0.60;0.60;;;7.80;99.90;;;;;;4999268;28;20221;-81
2023/12/26 04:22:38;;;;;;;2.23;0.70;;;7.80;99.90;;;;;;5026716;28;20642;-81
2023/12/26 04:25:06;;;;;;;0.60;0.57;;;7.80;99.90;;;;;;5013889;28;20176;-81
2023/12/26 04:27:31;;;;;;;1.30;1.00;;;7.80;99.90;;;;;;5013656;28;20195;-81
2023/12/26 04:29:57;;;;;;;0.60;0.60;;;7.80;99.90;;;;;;5016666;28;20458;-81
2023/12/26 04:32:23;;;;;;;0.60;0.50;;;7.80;99.90;;;;;;5007148;28;20707;-81
2023/12/26 04:34:49;;;;;;;0.70;0.70;;;7.70;99.90;;;;;;4999418;28;20237;-80
2023/12/26 04:37:14;;;;;;;3.17;2.97;;;7.80;99.90;;;;;;5010254;28;20451;-80
2023/12/26 04:39:40;;;;;;;1.57;1.07;;;7.80;99.90;;;;;;5015843;28;20190;-81
2023/12/26 04:42:06;;;;;;;0.60;0.50;;;7.70;99.90;;;;;;5011885;28;20184;-81
2023/12/26 04:44:31;;;;;;;16.67;1.90;;;7.70;99.90;;;;;;5011953;28;20197;-81
2023/12/26 04:46:56;;;;;;;0.70;0.70;;;7.80;99.90;;;;;;5007926;28;20680;-81
2023/12/26 04:49:22;;;;;;;0.60;0.50;;;7.80;99.90;;;;;;5006845;28;20196;-80
2023/12/26 04:51:48;;;;;;;0.60;0.50;;;7.80;99.90;;;;;;5007395;28;20195;-80
2023/12/26 04:54:14;;;;;;;0.60;0.50;;;7.80;99.90;;;;;;5008948;28;20187;-80
2023/12/26 04:56:43;;;;;;;1.30;1.20;;;7.80;99.90;;;;;;5007852;28;20443;-80
2023/12/26 04:59:08;;;;;;;0.67;0.67;;;7.90;99.90;;;;;;5007648;28;20663;-80
2023/12/26 05:01:40;;;;;;;2.53;1.60;;;7.80;99.90;;;;;;5011419;28;20453;-81
2023/12/26 05:04:05;;;;;;;0.73;0.70;;;7.80;99.90;;;;;;5014121;28;20278;-80
2023/12/26 05:06:31;;;;;;;0.67;0.60;;;7.80;99.90;;;;;;5012709;28;20573;-80
2023/12/26 05:08:56;;;;;;;1.97;1.37;;;7.80;99.90;;;;;;5012211;28;20180;-81
2023/12/26 05:11:23;;;;;;;0.60;0.50;;;7.80;99.90;;;;;;5007681;28;20251;-81
2023/12/26 05:13:49;;;;;;;1.30;1.20;;;7.70;99.90;;;;;;5013715;28;20194;-81
2023/12/26 05:16:16;;;;;;;2.20;0.97;;;7.70;99.90;;;;;;5012045;28;20446;-80
2023/12/26 05:18:42;;;;;;;14.27;1.33;;;7.70;99.90;;;;;;5015003;28;20450;-81
2023/12/26 05:21:22;;;;;;;1.97;1.77;;;7.70;99.90;;;;;;5011790;28;20997;-80
2023/12/26 05:23:48;;;;;;;0.70;0.60;;;7.70;99.90;;;;;;5012424;28;20275;-80
2023/12/26 05:26:14;;;;;;;0.70;0.60;;;7.70;99.90;;;;;;5017117;28;20970;-81
2023/12/26 05:28:40;;;;;;;0.70;0.60;;;7.70;99.90;;;;;;5012212;28;20511;-81
2023/12/26 05:31:06;;;;;;;0.70;0.70;;;7.70;99.90;;;;;;5011685;28;20437;-81
2023/12/26 05:33:32;;;;;;;2.60;1.77;;;7.60;99.90;;;;;;5011556;28;20458;-81
2023/12/26 05:35:59;;;;;;;2.60;2.50;;;7.60;99.90;;;;;;5010616;28;20223;-81
2023/12/26 05:38:24;;;;;;;1.00;1.00;;;7.60;99.90;;;;;;5014167;28;20195;-81
2023/12/26 05:40:50;;;;;;;12.93;1.73;;;7.60;99.90;;;;;;5012001;28;20510;-81
2023/12/26 05:43:16;;;;;;;0.70;0.60;;;7.60;99.90;;;;;;5011434;28;20188;-81
2023/12/26 05:45:42;;;;;;;5.60;3.73;;;7.60;99.90;;;;;;5010822;28;20219;-80
2023/12/26 05:48:08;;;;;;;0.70;0.60;;;7.70;99.90;;;;;;5012245;28;20295;-81
2023/12/26 05:50:33;;;;;;;0.77;0.60;;;7.70;99.90;;;;;;4992894;28;21037;-81
2023/12/26 05:52:59;;;;;;;1.00;0.70;;;7.60;99.90;;;;;;5011524;28;20449;-81
2023/12/26 05:55:25;;;;;;;0.70;0.50;;;7.60;99.90;;;;;;5010248;28;20287;-81
2023/12/26 05:57:50;;;;;;;1.00;0.90;;;7.60;99.90;;;;;;4999977;28;20566;-81
2023/12/26 06:00:16;;;;;;;1.63;0.83;;;7.60;99.90;;;;;;5010605;28;20224;-80
2023/12/26 06:02:42;;;;;;;2.50;2.10;;;7.60;99.90;;;;;;5010616;28;20602;-81
2023/12/26 06:05:08;;;;;;;0.80;0.70;;;7.60;99.90;;;;;;5008125;28;20191;-80
2023/12/26 06:07:33;;;;;;;5.03;0.97;;;7.60;99.90;;;;;;5015683;28;20199;-81
2023/12/26 06:09:59;;;;;;;2.73;0.97;;;7.60;99.90;;;;;;5020783;28;20183;-80
2023/12/26 06:12:25;;;;;;;0.80;0.70;;;7.60;99.90;;;;;;5020478;28;20188;-82
2023/12/26 06:14:50;;;;;;;1.10;0.90;;;7.60;99.90;;;;;;5018875;28;20492;-81
2023/12/26 06:17:18;;;;;;;0.80;0.60;;;7.60;99.90;;;;;;5012597;28;20659;-82
2023/12/26 06:19:43;;;;;;;5.33;3.77;;;7.50;99.90;;;;;;5018689;28;20176;-81
2023/12/26 06:22:09;;;;;;;1.57;1.13;;;7.60;99.90;;;;;;5027649;28;20934;-81
2023/12/26 06:24:34;;;;;;;1.30;0.70;;;7.60;99.90;;;;;;5035551;28;20199;-81
2023/12/26 06:27:00;;;;;;;3.17;0.97;;;7.60;99.90;;;;;;5019626;28;20254;-80
2023/12/26 06:29:25;;;;;;;4.47;1.17;;;7.60;99.90;;;;;;5033198;28;20397;-81
2023/12/26 06:31:51;;;;;;;0.90;0.60;;;7.70;99.90;;;;;;5023321;28;20192;-83
2023/12/26 06:34:16;;;;;;;1.03;0.93;;;7.60;99.90;;;;;;5024257;28;20184;-82
2023/12/26 06:36:42;;;;;;;1.30;0.90;;;7.60;99.90;;;;;;5033198;28;20192;-83
2023/12/26 06:39:07;;;;;;;1.50;1.13;;;7.60;99.90;;;;;;5029992;28;20194;-83
2023/12/26 06:41:33;;;;;;;3.37;2.40;;;7.70;99.90;;;;;;5029752;28;20214;-83
2023/12/26 06:43:58;;;;;;;9.47;2.50;;;7.60;99.90;;;;;;5024368;28;20183;-83
2023/12/26 06:46:25;;;;;;;0.90;0.60;;;7.60;99.90;;;;;;5034752;28;20720;-82
2023/12/26 06:48:50;;;;;;;1.27;0.97;;;7.60;99.90;;;;;;5028672;28;20175;-83
2023/12/26 06:51:16;;;;;;;3.83;1.23;;;7.60;99.90;;;;;;5021669;28;20440;-83
2023/12/26 06:53:43;;;;;;;0.93;0.60;;;7.60;99.90;;;;;;5011747;28;20257;-82
2023/12/26 06:56:08;;;;;;;0.97;0.60;;;7.60;99.90;;;;;;5028433;28;20426;-82
2023/12/26 06:58:34;;;;;;;1.53;1.43;;;7.60;99.90;;;;;;5028022;28;20442;-83
2023/12/26 07:01:00;;;;;;;22.30;2.83;;;7.70;99.90;;;;;;5005078;28;20192;-83
2023/12/26 07:03:26;;;;;;;1.00;0.60;;;7.70;99.90;;;;;;5017365;28;20212;-82
2023/12/26 07:05:51;;;;;;;1.10;0.90;;;7.60;99.90;;;;;;5017502;28;20576;-83
2023/12/26 07:08:17;;;;;;;1.63;1.53;;;7.70;99.90;;;;;;5028309;28;20179;-82
2023/12/26 07:10:43;;;;;;;1.00;0.70;;;7.70;99.90;;;;;;5005978;28;20285;-85
2023/12/26 07:13:10;;;;;;;1.00;0.60;;;7.70;99.90;;;;;;5019780;28;20429;-84
2023/12/26 07:15:35;;;;;;;1.87;1.43;;;7.60;99.90;;;;;;5020768;28;20174;-82
2023/12/26 07:18:01;;;;;;;1.00;0.83;;;7.60;99.90;;;;;;5033961;28;20431;-81
2023/12/26 07:20:26;;;;;;;1.70;1.07;;;7.70;99.90;;;;;;5010730;28;20245;-83
2023/12/26 07:22:52;;;;;;;1.10;0.80;;;7.80;99.90;;;;;;5008005;28;20239;-81
2023/12/26 07:25:17;;;;;;;9.43;1.73;;;7.80;99.90;;;;;;5024588;28;20198;-83
2023/12/26 07:27:43;;;;;;;1.00;0.70;;;7.70;99.90;;;;;;5024714;28;20199;-84
2023/12/26 07:30:09;;;;;;;5.37;0.90;;;7.70;99.90;;;;;;5023866;28;20197;-83
2023/12/26 07:32:34;;;;;;;1.43;1.20;;;7.70;99.90;;;;;;5007348;28;20200;-84
2023/12/26 07:35:00;;;;;;;24.40;1.70;;;7.60;99.90;;;;;;5029399;28;20435;-84
2023/12/26 07:37:25;;;;;;;1.00;0.60;;;7.50;99.90;;;;;;5029455;28;20219;-84
2023/12/26 07:39:51;;;;;;;1.67;0.90;;;7.40;99.90;;;;;;5023972;28;20211;-83
2023/12/26 07:42:16;;;;;;;3.93;1.73;;;7.30;99.90;;;;;;5022692;28;20188;-83
2023/12/26 07:44:42;;;;;;;1.00;0.60;;;7.30;99.90;;;;;;5029122;28;20188;-84
2023/12/26 07:47:07;;;;;;;1.40;1.00;;;7.20;99.90;;;;;;5016014;28;20750;-84
2023/12/26 07:49:33;;;;;;;7.77;1.13;;;7.30;99.90;;;;;;5016012;28;20184;-83
2023/12/26 07:51:58;;;;;;;1.10;0.60;;;7.30;99.90;;;;;;5007847;28;20184;-83
2023/12/26 07:54:24;;;;;;;1.60;1.20;;;7.30;99.90;;;;;;5027681;28;20183;-83
2023/12/26 07:56:49;;;;;;;1.10;0.60;;;7.40;99.90;;;;;;5028520;28;20183;-84
2023/12/26 07:59:15;;;;;;;2.47;1.37;;;7.40;99.90;;;;;;5011091;28;20824;-86
2023/12/26 08:01:41;;;;;;;1.10;0.70;;;7.50;99.90;;;;;;5023121;28;20210;-86
2023/12/26 08:04:06;;;;;;;1.10;0.70;;;7.50;99.90;;;;;;5026465;28;20930;-83
2023/12/26 08:06:32;;;;;;;6.00;2.70;;;7.50;99.90;;;;;;5025549;28;20235;-83
2023/12/26 08:09:02;;;;;;;3.33;2.67;;;7.40;99.90;;;;;;5025353;28;20234;-83
2023/12/26 08:11:27;;;;;;;1.10;0.60;;;7.40;99.90;;;;;;5013281;28;21285;-83
2023/12/26 08:13:53;;;;;;;3.43;1.83;;;7.50;99.90;;;;;;4996150;28;20443;-83
2023/12/26 08:16:18;;;;;;;4.23;1.00;;;7.50;99.90;;;;;;5022238;28;20196;-83
2023/12/26 08:18:44;;;;;;;1.10;0.70;;;7.50;99.90;;;;;;5018292;28;20204;-84
2023/12/26 08:21:09;;;;;;;1.10;0.60;;;7.40;99.90;;;;;;5014594;28;20284;-85
2023/12/26 08:23:36;;;;;;;1.20;0.70;;;7.30;99.90;;;;;;5002807;28;20658;-87
2023/12/26 08:26:07;;;;;;;1.10;0.60;;;7.30;99.90;;;;;;5024160;28;20238;-83
2023/12/26 08:28:33;;;;;;;1.67;1.57;;;7.30;99.90;;;;;;5023844;28;20521;-83
2023/12/26 08:30:59;;;;;;;1.10;0.60;;;7.30;99.90;;;;;;5004119;28;20525;-84
2023/12/26 08:33:25;;;;;;;5.57;2.33;;;7.30;99.90;;;;;;5019515;28;20193;-83
2023/12/26 08:35:51;;;;;;;1.10;0.60;;;7.40;99.90;;;;;;5004017;28;20986;-83
2023/12/26 08:38:16;;;;;;;1.10;0.67;;;7.50;99.90;;;;;;5026194;28;20636;-83
2023/12/26 08:40:42;;;;;;;1.20;0.80;;;7.50;99.90;;;;;;5030788;28;20430;-83
2023/12/26 08:43:07;;;;;;;1.10;0.70;;;7.50;99.90;;;;;;5021794;28;20226;-83
2023/12/26 08:45:34;;;;;;;1.20;0.90;;;7.60;99.90;;;;;;5030459;28;20241;-83
2023/12/26 08:48:00;;;;;;;1.10;0.90;;;7.60;99.90;;;;;;5031270;28;20678;-85
2023/12/26 08:50:26;;;;;;;1.10;0.70;;;7.60;99.90;;;;;;5029422;28;20880;-85
2023/12/26 08:52:51;;;;;;;3.90;1.20;;;7.70;99.90;;;;;;5027340;28;20433;-83
2023/12/26 08:55:17;;;;;;;1.10;0.60;;;7.70;99.90;;;;;;5014448;28;20190;-83
2023/12/26 08:57:43;;;;;;;6.23;1.80;;;7.70;99.90;;;;;;5015220;28;20219;-84
2023/12/26 09:00:10;;;;;;;1.63;1.20;;;7.80;99.90;;;;;;5039554;28;20945;-85
2023/12/26 09:02:36;;;;;;;1.83;1.47;;;7.80;99.90;;;;;;5010949;28;20560;-85
2023/12/26 09:05:02;;;;;;;;;;;7.70;99.90;;;;;;5011941;28;20465;-82
2023/12/26 09:07:29;;;;;;;3.47;1.67;;;7.70;99.90;;;;;;5036893;28;20234;-86
2023/12/26 09:09:55;;;;;;;1.10;0.60;;;7.70;99.90;;;;;;5028365;28;20493;-84
2023/12/26 09:12:20;;;;;;;1.10;0.60;;;7.70;99.90;;;;;;5023055;28;20885;-84
2023/12/26 09:14:46;;;;;;;1.10;0.60;;;7.60;99.90;;;;;;5031819;28;20274;-84
2023/12/26 09:17:11;;;;;;;1.10;0.70;;;7.50;99.90;;;;;;5017293;28;20197;-85
2023/12/26 09:19:37;;;;;;;1.10;0.60;;;7.50;99.90;;;;;;5035675;28;20188;-84
2023/12/26 09:22:05;;;;;;;1.10;0.60;;;7.40;99.90;;;;;;5050334;28;20239;-84
2023/12/26 09:24:31;;;;;;;1.10;0.70;;;7.30;99.90;;;;;;5016889;28;20188;-86
2023/12/26 09:26:57;;;;;;;6.30;1.17;;;7.20;99.90;;;;;;5032660;28;20497;-84
2023/12/26 09:29:22;;;;;;;1.10;0.60;;;7.20;99.90;;;;;;5022841;28;20190;-84
2023/12/26 09:31:48;;;;;;;8.70;3.13;;;7.30;99.90;;;;;;5033644;28;20234;-84
2023/12/26 09:34:13;;;;;;;1.47;1.10;;;7.30;99.90;;;;;;5027345;28;20192;-84
2023/12/26 09:36:39;;;;;;;1.10;0.63;;;7.40;99.90;;;;;;5016272;28;20199;-83
2023/12/26 09:39:06;;;;;;;1.50;1.40;;;7.50;99.90;;;;;;5023562;28;20185;-84
2023/12/26 09:41:31;;;;;;;1.10;0.60;;;7.60;99.90;;;;;;5018165;28;20458;-83
2023/12/26 09:43:57;;;;;;;1.10;0.60;;;7.70;99.90;;;;;;5021563;28;20457;-86
2023/12/26 09:46:23;;;;;;;1.30;1.20;;;7.70;99.90;;;;;;5022184;28;20223;-83
2023/12/26 09:48:49;;;;;;;1.10;0.60;;;7.80;99.90;;;;;;5018603;28;20271;-83
2023/12/26 09:51:21;;;;;;;1.10;0.60;;;7.80;99.90;;;;;;5021302;28;20239;-81
2023/12/26 09:53:50;;;;;;;2.23;0.90;;;7.80;99.90;;;;;;5008519;28;20532;-83
2023/12/26 09:56:15;;;;;;;2.67;1.43;;;7.80;99.90;;;;;;5027570;28;20440;-84
2023/12/26 09:58:43;;;;;;;1.10;0.60;;;7.80;99.90;;;;;;5033661;28;20905;-84
2023/12/26 10:01:12;;;;;;;1.67;0.70;;;7.80;99.90;;;;;;5025822;28;20199;-83
2023/12/26 10:03:39;;;;;;;1.10;0.60;;;7.90;99.90;;;;;;5029605;28;20902;-86
2023/12/26 10:06:05;;;;;;;4.03;0.93;;;7.80;99.90;;;;;;5030155;28;20564;-85
2023/12/26 10:08:31;;;;;;;1.40;0.80;;;7.80;99.90;;;;;;5023142;28;20798;-87
2023/12/26 10:10:57;;;;;;;2.10;1.93;;;7.80;99.90;;;;;;5023465;28;20443;-85
2023/12/26 10:13:22;;;;;;;1.10;0.80;;;7.80;99.90;;;;;;5015962;28;20455;-84
2023/12/26 10:15:48;;;;;;;1.57;1.47;;;7.70;99.90;;;;;;5021549;28;20214;-87
2023/12/26 10:18:14;;;;;;;1.20;0.73;;;7.80;99.90;;;;;;5011356;28;20190;-86
2023/12/26 10:20:40;;;;;;;1.30;1.20;;;7.70;99.90;;;;;;5010455;28;20711;-87
2023/12/26 10:23:06;;;;;;;1.00;0.60;;;7.70;99.90;;;;;;5017357;28;20471;-85
2023/12/26 10:25:31;;;;;;;1.20;0.97;;;7.70;99.90;;;;;;5021836;28;20267;-87
2023/12/26 10:27:58;;;;;;;1.07;0.70;;;7.80;99.90;;;;;;5025874;28;20195;-84
2023/12/26 10:30:26;;;;;;;2.60;1.80;;;7.80;99.90;;;;;;5018111;28;20177;-86
2023/12/26 10:33:02;;;;;;;1.83;1.73;;;7.90;99.90;;;;;;5021577;28;20441;-85
2023/12/26 10:35:28;;;;;;;1.00;0.60;;;7.90;99.90;;;;;;5013094;28;20433;-86
2023/12/26 10:37:55;;;;;;;1.00;0.60;;;7.90;99.90;;;;;;5028348;28;20426;-87
2023/12/26 10:40:21;;;;;;;2.07;1.00;;;7.90;99.90;;;;;;5027191;28;20466;-86
2023/12/26 10:42:50;;;;;;;1.30;0.80;;;8.00;99.90;;;;;;5026119;28;20466;-85
2023/12/26 10:45:18;;;;;;;2.17;1.97;;;8.00;99.90;;;;;;5021247;28;20677;-84
2023/12/26 10:47:47;;;;;;;1.00;0.60;;;8.00;99.90;;;;;;5031632;28;20457;-84
2023/12/26 10:50:12;;;;;;;1.07;0.80;;;8.00;99.90;;;;;;5012492;28;20504;-87
2023/12/26 10:52:52;;;;;;;3.37;1.53;;;8.00;99.90;;;;;;5013092;28;20446;-84
2023/12/26 10:55:19;;;;;;;1.00;0.63;;;8.00;99.90;;;;;;5039078;28;20179;-84
2023/12/26 10:57:45;;;;;;;4.07;3.87;;;8.00;99.90;;;;;;5031611;28;20422;-83
2023/12/26 11:00:10;;;;;;;1.00;0.60;;;8.00;99.90;;;;;;5026150;28;20430;-86
2023/12/26 11:02:36;;;;;;;1.00;0.70;;;8.00;99.90;;;;;;5030028;28;20944;-86
2023/12/26 11:05:02;;;;;;;8.10;1.27;;;8.00;99.90;;;;;;5028972;28;20242;-87
2023/12/26 11:07:27;;;;;;;1.10;0.93;;;7.90;99.90;;;;;;5023584;28;20228;-87
2023/12/26 11:09:53;;;;;;;1.20;1.03;;;7.90;99.90;;;;;;5013272;28;20649;-87
2023/12/26 11:12:21;;;;;;;1.30;0.63;;;7.90;99.90;;;;;;5018554;28;20184;-83
2023/12/26 11:14:47;;;;;;;1.00;0.70;;;7.90;99.90;;;;;;5021857;28;20220;-86
2023/12/26 11:17:13;;;;;;;1.00;0.70;;;7.80;99.90;;;;;;5015394;28;20970;-86
2023/12/26 11:19:39;;;;;;;1.00;0.57;;;7.50;99.90;;;;;;5035678;28;20422;-88
2023/12/26 11:22:05;;;;;;;1.00;0.60;;;7.50;99.90;;;;;;5024384;28;20572;-88
2023/12/26 11:24:30;;;;;;;2.40;2.20;;;7.50;99.90;;;;;;5032676;28;20183;-87
2023/12/26 11:26:56;;;;;;;1.23;1.13;;;7.50;99.90;;;;;;5012273;28;20528;-86
2023/12/26 11:29:22;;;;;;;1.00;0.60;;;7.50;99.90;;;;;;5024463;28;20186;-88
2023/12/26 11:31:48;;;;;;;1.00;0.60;;;7.50;99.90;;;;;;5030938;28;20202;-85
2023/12/26 11:34:15;;;;;;;1.00;0.60;;;7.50;99.90;;;;;;5012576;28;20275;-84
2023/12/26 11:36:43;;;;;;;1.00;0.60;;;7.40;99.90;;;;;;5030182;28;20186;-85
2023/12/26 11:39:09;;;;;;;1.13;1.03;;;7.40;99.90;;;;;;5035511;28;20437;-85
2023/12/26 11:41:35;;;;;;;0.90;0.60;;;7.40;99.90;;;;;;5036750;28;20461;-86
2023/12/26 11:44:00;;;;;;;1.87;1.77;;;7.30;99.90;;;;;;5043075;28;20273;-86
2023/12/26 11:46:26;;;;;;;2.60;2.50;;;7.30;99.90;;;;;;5036833;28;20305;-86
2023/12/26 11:48:51;;;;;;;1.00;0.70;;;7.20;99.90;;;;;;5031692;28;20194;-87
2023/12/26 11:51:17;;;;;;;1.00;0.60;;;7.20;99.90;;;;;;5042696;28;20187;-87
2023/12/26 11:53:43;;;;;;;1.00;0.60;;;7.20;99.90;;;;;;5034148;28;20182;-87
2023/12/26 11:56:08;;;;;;;1.00;0.70;;;7.20;99.90;;;;;;5038186;28;20199;-86
2023/12/26 11:58:34;;;;;;;1.00;0.60;;;7.20;99.90;;;;;;5038992;28;20551;-86
2023/12/26 12:00:59;;;;;;;1.00;0.60;;;7.20;99.90;;;;;;5030098;28;20193;-86
2023/12/26 12:03:25;;;;;;;1.00;0.63;;;7.20;99.90;;;;;;5046038;28;20174;-84
2023/12/26 12:06:13;;;;;;;1.00;0.60;;;7.20;99.90;;;;;;5035642;28;20235;-87
2023/12/26 12:09:02;;;;;;;10.57;1.00;;;7.40;99.90;;;;;;5034727;28;20192;-86
2023/12/26 12:11:28;;;;;;;0.90;0.60;;;7.70;99.90;;;;;;5026992;28;20418;-80
2023/12/26 12:13:53;;;;;;;1.00;0.80;;;7.80;99.90;;;;;;5035300;28;20938;-82
2023/12/26 12:16:23;;;;;;;0.97;0.80;;;7.60;99.90;;;;;;5046775;28;20236;-84
2023/12/26 12:19:02;;;;;;;4.30;2.13;;;7.60;99.90;;;;;;5039560;28;20179;-85
2023/12/26 12:21:37;;;;;;;0.90;0.60;;;7.70;99.90;;;;;;5028444;28;21028;-85
2023/12/26 12:24:04;;;;;;;0.97;0.87;;;7.60;99.90;;;;;;5029336;28;20425;-85
2023/12/26 12:27:04;;;;;;;1.47;1.47;;;7.40;99.90;;;;;;5013746;28;21032;-84
2023/12/26 12:29:58;;;;;;;1.60;1.50;;;7.20;99.90;;;;;;5033253;28;20437;-84
2023/12/26 12:32:30;;;;;;;1.57;1.47;;;7.10;99.90;;;;;;5016795;28;20427;-87
2023/12/26 12:35:18;;;;;;;0.70;0.60;;;7.00;99.90;;;;;;5027670;28;20943;-85
2023/12/26 12:37:47;;;;;;;0.80;0.63;;;7.00;99.90;;;;;;5031632;28;20430;-84
2023/12/26 12:40:12;;;;;;;1.20;1.20;;;6.90;99.90;;;;;;5014019;28;20430;-86
2023/12/26 12:42:38;;;;;;;1.53;1.43;;;6.90;99.90;;;;;;5012694;28;20430;-85
2023/12/26 12:45:04;;;;;;;0.80;0.60;;;6.70;99.90;;;;;;5031097;28;20192;-85
2023/12/26 12:47:33;;;;;;;2.80;0.80;;;6.90;99.90;;;;;;5018156;28;20304;-85
2023/12/26 12:49:58;;;;;;;3.23;3.13;;;6.80;99.90;;;;;;5018086;28;20456;-85
2023/12/26 12:52:24;;;;;;;0.80;0.60;;;6.80;99.90;;;;;;5026620;28;20450;-85
2023/12/26 12:54:50;;;;;;;1.47;1.30;;;6.80;99.90;;;;;;5032707;28;20642;-86